createdAt,value
2022-09-26T00:01:38.503Z,20.70
2022-09-26T00:04:23.053Z,19.50
2022-09-26T00:06:53.926Z,20.10
2022-09-26T00:09:23.708Z,23.60
2022-09-26T00:11:51.772Z,24.50
2022-09-26T00:14:24.048Z,24.80
2022-09-26T00:16:52.348Z,24.20
2022-09-26T00:19:21.437Z,19.90
2022-09-26T00:21:49.409Z,22.70
2022-09-26T00:24:17.360Z,21.70
2022-09-26T00:26:45.314Z,20.70
2022-09-26T00:29:13.914Z,18.00
2022-09-26T00:31:46.075Z,25.40
2022-09-26T00:34:17.406Z,27.50
2022-09-26T00:36:45.515Z,26.50
2022-09-26T00:39:15.465Z,25.70
2022-09-26T00:41:44.354Z,28.60
2022-09-26T00:44:41.547Z,29.80
2022-09-26T00:47:36.780Z,30.80
2022-09-26T00:50:13.669Z,34.40
2022-09-26T00:52:51.922Z,31.50
2022-09-26T00:55:24.162Z,38.60
2022-09-26T00:58:24.915Z,28.50
2022-09-26T01:00:53.422Z,30.50
2022-09-26T01:03:24.114Z,36.30
2022-09-26T01:05:52.090Z,27.80
2022-09-26T01:08:25.651Z,28.20
2022-09-26T01:10:53.754Z,31.40
2022-09-26T01:13:22.274Z,30.40
2022-09-26T01:15:50.261Z,26.70
2022-09-26T01:18:18.798Z,25.40
2022-09-26T01:20:56.004Z,25.60
2022-09-26T01:23:55.535Z,21.30
2022-09-26T01:26:30.652Z,31.80
2022-09-26T01:29:36.961Z,29.30
2022-09-26T01:32:45.940Z,36.90
2022-09-26T01:35:51.540Z,24.10
2022-09-26T01:38:56.434Z,22.80
2022-09-26T01:41:58.345Z,22.90
2022-09-26T01:44:38.678Z,21.70
2022-09-26T01:47:38.863Z,20.40
2022-09-26T01:50:23.878Z,22.60
2022-09-26T01:53:06.561Z,26.50
2022-09-26T01:55:59.630Z,21.20
2022-09-26T01:58:38.249Z,23.00
2022-09-26T02:01:10.822Z,20.20
2022-09-26T02:03:53.932Z,26.90
2022-09-26T02:06:28.694Z,24.10
2022-09-26T02:09:09.452Z,20.30
2022-09-26T02:11:41.778Z,18.80
2022-09-26T02:14:34.639Z,25.10
2022-09-26T02:17:17.169Z,22.60
2022-09-26T02:20:07.007Z,22.90
2022-09-26T02:22:35.453Z,19.50
2022-09-26T02:25:04.933Z,21.10
2022-09-26T02:27:34.699Z,23.80
2022-09-26T02:30:05.969Z,19.10
2022-09-26T02:32:34.822Z,20.00
2022-09-26T02:35:24.899Z,22.20
2022-09-26T02:37:53.622Z,17.40
2022-09-26T02:40:34.213Z,20.00
2022-09-26T02:43:25.274Z,22.20
2022-09-26T02:46:27.719Z,18.90
2022-09-26T02:49:24.992Z,20.30
2022-09-26T02:54:56.910Z,19.50
2022-09-26T02:57:40.422Z,20.40
2022-09-26T03:00:09.449Z,22.50
2022-09-26T03:02:49.241Z,24.90
2022-09-26T03:05:22.221Z,20.00
2022-09-26T03:07:54.400Z,22.70
2022-09-26T03:10:24.437Z,21.30
2022-09-26T03:12:54.423Z,24.40
2022-09-26T03:15:24.365Z,21.60
2022-09-26T03:17:55.461Z,20.30
2022-09-26T03:20:25.007Z,25.60
2022-09-26T03:22:53.723Z,19.10
2022-09-26T03:25:26.127Z,25.50
2022-09-26T03:28:02.415Z,25.70
2022-09-26T03:30:30.600Z,24.10
2022-09-26T03:33:18.604Z,18.80
2022-09-26T03:35:47.468Z,17.50
2022-09-26T03:38:16.031Z,20.30
2022-09-26T03:40:49.936Z,19.30
2022-09-26T03:43:36.879Z,21.50
2022-09-26T03:46:07.348Z,22.40
2022-09-26T03:48:35.556Z,21.30
2022-09-26T03:51:13.552Z,21.20
2022-09-26T03:53:43.919Z,26.90
2022-09-26T03:56:18.314Z,21.30
2022-09-26T03:58:47.407Z,22.20
2022-09-26T04:01:19.314Z,22.90
2022-09-26T04:03:50.762Z,22.90
2022-09-26T04:06:21.210Z,21.20
2022-09-26T04:08:52.596Z,19.20
2022-09-26T04:11:24.845Z,19.70
2022-09-26T04:13:54.224Z,18.90
2022-09-26T04:16:29.745Z,17.10
2022-09-26T04:19:03.906Z,23.70
2022-09-26T04:21:35.631Z,17.70
2022-09-26T04:24:03.779Z,23.50
2022-09-26T04:26:32.300Z,19.80
2022-09-26T04:29:00.476Z,20.10
2022-09-26T04:31:48.711Z,15.20
2022-09-26T04:34:23.501Z,23.80
2022-09-26T04:36:54.708Z,28.00
2022-09-26T04:39:23.418Z,25.80
2022-09-26T04:41:52.511Z,22.70
2022-09-26T04:44:20.598Z,27.40
2022-09-26T04:46:48.922Z,31.90
2022-09-26T04:49:17.425Z,29.30
2022-09-26T04:51:45.641Z,37.00
2022-09-26T04:54:14.349Z,34.20
2022-09-26T04:56:43.772Z,33.80
2022-09-26T04:59:11.754Z,32.40
2022-09-26T05:01:48.185Z,33.10
2022-09-26T05:04:27.499Z,35.90
2022-09-26T05:06:58.011Z,38.30
2022-09-26T05:09:34.153Z,32.40
2022-09-26T05:12:08.858Z,27.80
2022-09-26T05:14:37.804Z,19.40
2022-09-26T05:17:06.265Z,24.10
2022-09-26T05:19:34.865Z,34.20
2022-09-26T05:22:20.316Z,22.70
2022-09-26T05:25:07.442Z,22.80
2022-09-26T05:27:36.946Z,20.60
2022-09-26T05:30:05.351Z,25.80
2022-09-26T05:32:34.431Z,16.90
2022-09-26T05:35:05.462Z,14.90
2022-09-26T05:37:34.303Z,17.00
2022-09-26T05:40:32.686Z,18.60
2022-09-26T05:43:02.640Z,15.70
2022-09-26T05:45:33.656Z,17.40
2022-09-26T05:48:04.177Z,17.00
2022-09-26T05:50:33.615Z,21.70
2022-09-26T05:53:02.917Z,17.60
2022-09-26T05:55:31.312Z,14.50
2022-09-26T05:58:06.380Z,21.40
2022-09-26T06:00:52.545Z,19.50
2022-09-26T06:03:22.929Z,14.90
2022-09-26T06:08:39.119Z,23.70
2022-09-26T06:11:33.411Z,18.60
2022-09-26T06:14:02.578Z,17.20
2022-09-26T06:16:31.580Z,19.10
2022-09-26T06:19:02.780Z,33.50
2022-09-26T06:21:31.590Z,34.70
2022-09-26T06:24:06.456Z,37.40
2022-09-26T06:26:36.211Z,30.10
2022-09-26T06:29:07.577Z,19.10
2022-09-26T06:31:37.547Z,25.70
2022-09-26T06:34:14.904Z,21.00
2022-09-26T06:37:01.601Z,29.80
2022-09-26T06:39:35.916Z,27.30
2022-09-26T06:42:07.744Z,20.10
2022-09-26T06:44:38.801Z,12.90
2022-09-26T06:47:33.922Z,21.60
2022-09-26T06:50:25.034Z,14.60
2022-09-26T06:52:56.680Z,20.00
2022-09-26T06:55:26.462Z,16.00
2022-09-26T06:57:54.579Z,22.80
2022-09-26T07:00:29.898Z,21.50
2022-09-26T07:03:06.257Z,16.60
2022-09-26T07:05:57.407Z,14.80
2022-09-26T07:08:50.152Z,17.20
2022-09-26T07:14:05.619Z,14.10
2022-09-26T07:16:34.107Z,14.40
2022-09-26T07:19:23.242Z,19.80
2022-09-26T07:21:58.089Z,20.20
2022-09-26T07:24:29.260Z,15.30
2022-09-26T07:26:58.082Z,13.20
2022-09-26T07:29:27.906Z,11.90
2022-09-26T07:31:56.164Z,19.30
2022-09-26T07:34:38.599Z,15.70
2022-09-26T07:37:07.902Z,12.70
2022-09-26T07:39:36.462Z,13.80
2022-09-26T07:42:04.766Z,14.10
2022-09-26T07:47:40.857Z,15.50
2022-09-26T07:50:27.492Z,17.60
2022-09-26T07:52:59.137Z,14.80
2022-09-26T07:55:28.349Z,14.30
2022-09-26T07:58:11.686Z,12.60
2022-09-26T08:01:12.238Z,14.00
2022-09-26T08:04:11.879Z,17.70
2022-09-26T08:06:41.870Z,15.40
2022-09-26T08:09:10.236Z,15.50
2022-09-26T08:11:56.931Z,16.20
2022-09-26T08:14:48.651Z,11.00
2022-09-26T08:17:22.208Z,11.30
2022-09-26T08:19:50.949Z,11.30
2022-09-26T08:22:20.248Z,9.40
2022-09-26T08:24:51.767Z,13.50
2022-09-26T08:27:32.794Z,10.50
2022-09-26T08:30:03.533Z,10.10
2022-09-26T08:32:33.963Z,15.60
2022-09-26T08:35:02.376Z,15.20
2022-09-26T08:37:33.664Z,14.40
2022-09-26T08:40:27.708Z,12.70
2022-09-26T08:43:53.239Z,10.10
2022-09-26T08:47:00.369Z,15.40
2022-09-26T08:50:16.225Z,16.00
2022-09-26T08:52:47.784Z,11.50
2022-09-26T08:55:23.379Z,14.50
2022-09-26T09:00:39.470Z,18.80
2022-09-26T09:03:36.298Z,13.40
2022-09-26T09:06:11.581Z,16.70
2022-09-26T09:08:46.614Z,9.10
2022-09-26T09:11:53.649Z,12.50
2022-09-26T09:15:24.104Z,15.40
2022-09-26T09:18:30.649Z,14.10
2022-09-26T09:22:12.614Z,16.20
2022-09-26T09:25:31.232Z,14.90
2022-09-26T09:28:20.741Z,11.40
2022-09-26T09:31:01.445Z,15.30
2022-09-26T09:33:44.663Z,17.70
2022-09-26T09:36:44.951Z,19.10
2022-09-26T09:39:30.240Z,12.20
2022-09-26T09:42:27.616Z,9.40
2022-09-26T09:45:12.944Z,10.80
2022-09-26T09:50:26.734Z,12.70
2022-09-26T09:53:13.715Z,9.10
2022-09-26T09:56:14.879Z,11.50
2022-09-26T09:58:43.165Z,7.00
2022-09-26T10:01:39.342Z,8.40
2022-09-26T10:04:44.042Z,9.80
2022-09-26T10:07:13.135Z,8.60
2022-09-26T10:09:44.472Z,5.30
2022-09-26T10:12:30.868Z,6.60
2022-09-26T10:15:27.700Z,9.20
2022-09-26T10:18:24.564Z,12.60
2022-09-26T10:21:18.051Z,9.70
2022-09-26T10:23:50.927Z,5.40
2022-09-26T10:26:44.747Z,10.70
2022-09-26T10:29:34.418Z,8.40
2022-09-26T10:32:03.801Z,7.50
2022-09-26T10:34:35.899Z,7.80
2022-09-26T10:37:25.360Z,6.10
2022-09-26T10:40:21.236Z,14.40
2022-09-26T10:42:49.511Z,6.70
2022-09-26T10:45:29.344Z,7.60
2022-09-26T10:48:48.464Z,11.70
2022-09-26T10:51:45.583Z,11.60
2022-09-26T10:54:18.967Z,14.40
2022-09-26T10:56:54.422Z,11.10
2022-09-26T10:59:28.240Z,8.30
2022-09-26T11:01:59.273Z,8.70
2022-09-26T11:04:49.526Z,13.00
2022-09-26T11:07:44.186Z,11.30
2022-09-26T11:10:32.793Z,14.20
2022-09-26T11:13:20.816Z,14.80
2022-09-26T11:16:09.103Z,21.00
2022-09-26T11:18:52.439Z,11.10
2022-09-26T11:21:34.451Z,13.30
2022-09-26T11:24:48.083Z,13.20
2022-09-26T11:27:51.459Z,11.40
2022-09-26T11:30:28.021Z,11.30
2022-09-26T11:35:58.508Z,11.60
2022-09-26T11:38:39.504Z,15.70
2022-09-26T11:41:08.258Z,10.50
2022-09-26T11:44:02.390Z,11.50
2022-09-26T11:47:18.027Z,7.60
2022-09-26T11:50:20.524Z,12.80
2022-09-26T11:53:07.368Z,10.80
2022-09-26T11:56:06.737Z,13.40
2022-09-26T11:58:43.684Z,14.30
2022-09-26T12:01:38.401Z,13.50
2022-09-26T12:04:13.139Z,13.30
2022-09-26T12:07:02.663Z,9.90
2022-09-26T12:09:36.902Z,8.40
2022-09-26T12:12:05.675Z,13.00
2022-09-26T12:15:02.509Z,14.40
2022-09-26T12:17:59.864Z,11.40
2022-09-26T12:20:34.287Z,14.00
2022-09-26T12:23:21.433Z,17.10
2022-09-26T12:26:30.276Z,13.20
2022-09-26T12:29:17.055Z,10.10
2022-09-26T12:32:16.799Z,12.60
2022-09-26T12:35:01.164Z,11.40
2022-09-26T12:37:46.467Z,12.60
2022-09-26T12:40:39.717Z,13.70
2022-09-26T12:43:26.313Z,13.00
2022-09-26T12:46:12.936Z,12.30
2022-09-26T12:49:26.737Z,12.00
2022-09-26T12:52:06.976Z,11.40
2022-09-26T12:55:14.373Z,14.80
2022-09-26T12:57:57.312Z,11.80
2022-09-26T13:00:27.431Z,17.10
2022-09-26T13:02:58.690Z,14.60
2022-09-26T13:05:57.572Z,11.50
2022-09-26T13:09:03.261Z,14.90
2022-09-26T13:11:49.460Z,12.60
2022-09-26T13:14:27.442Z,12.70
2022-09-26T13:17:06.090Z,13.50
2022-09-26T13:19:44.065Z,13.80
2022-09-26T13:22:32.976Z,13.20
2022-09-26T13:25:19.031Z,9.20
2022-09-26T13:27:58.160Z,11.80
2022-09-26T13:30:35.340Z,14.30
2022-09-26T13:33:26.748Z,11.20
2022-09-26T13:35:59.878Z,12.40
2022-09-26T13:38:46.167Z,11.60
2022-09-26T13:41:20.230Z,13.30
2022-09-26T13:44:06.052Z,14.10
2022-09-26T13:46:52.970Z,14.40
2022-09-26T13:49:37.495Z,12.40
2022-09-26T13:52:05.783Z,13.40
2022-09-26T13:54:45.544Z,11.20
2022-09-26T13:57:46.151Z,16.90
2022-09-26T14:00:30.479Z,13.70
2022-09-26T14:03:15.811Z,14.60
2022-09-26T14:05:50.089Z,18.50
2022-09-26T14:08:42.931Z,20.30
2022-09-26T14:11:42.710Z,17.80
2022-09-26T14:14:17.996Z,13.90
2022-09-26T14:16:46.881Z,14.90
2022-09-26T14:19:39.492Z,13.90
2022-09-26T14:22:20.878Z,25.90
2022-09-26T14:24:49.797Z,14.20
2022-09-26T14:27:17.982Z,12.20
2022-09-26T14:29:49.449Z,18.10
2022-09-26T14:32:19.200Z,15.30
2022-09-26T14:34:50.479Z,23.50
2022-09-26T14:37:24.723Z,12.10
2022-09-26T14:40:08.293Z,17.50
2022-09-26T14:42:42.480Z,26.10
2022-09-26T14:45:16.817Z,13.10
2022-09-26T14:47:53.366Z,15.10
2022-09-26T14:50:28.091Z,13.50
2022-09-26T14:53:02.247Z,17.70
2022-09-26T14:55:31.654Z,16.30
2022-09-26T14:58:49.942Z,13.30
2022-09-26T15:01:45.338Z,18.20
2022-09-26T15:04:16.677Z,15.80
2022-09-26T15:06:49.194Z,16.50
2022-09-26T15:09:26.389Z,23.20
2022-09-26T15:12:01.377Z,15.50
2022-09-26T15:14:45.571Z,15.20
2022-09-26T15:17:25.991Z,20.50
2022-09-26T15:19:57.637Z,16.60
2022-09-26T15:22:29.242Z,18.60
2022-09-26T15:25:19.411Z,16.40
2022-09-26T15:27:54.058Z,19.30
2022-09-26T15:30:32.530Z,16.00
2022-09-26T15:33:05.855Z,14.50
2022-09-26T15:35:34.181Z,15.30
2022-09-26T15:38:09.979Z,18.50
2022-09-26T15:40:38.328Z,17.30
2022-09-26T15:43:09.819Z,24.20
2022-09-26T15:45:47.902Z,18.60
2022-09-26T15:48:20.676Z,21.60
2022-09-26T15:50:52.220Z,25.10
2022-09-26T15:53:26.589Z,19.10
2022-09-26T15:56:18.585Z,12.90
2022-09-26T15:58:53.907Z,16.10
2022-09-26T16:01:25.843Z,14.50
2022-09-26T16:03:55.231Z,14.80
2022-09-26T16:06:50.799Z,30.40
2022-09-26T16:09:21.748Z,13.50
2022-09-26T16:11:59.186Z,14.10
2022-09-26T16:14:51.018Z,13.70
2022-09-26T16:17:36.420Z,14.30
2022-09-26T16:20:24.663Z,24.90
2022-09-26T16:23:04.162Z,21.60
2022-09-26T16:25:54.851Z,23.30
2022-09-26T16:28:42.753Z,22.00
2022-09-26T16:31:23.481Z,17.80
2022-09-26T16:33:53.860Z,20.80
2022-09-26T16:36:31.062Z,25.20
2022-09-26T16:39:04.234Z,16.60
2022-09-26T16:42:00.229Z,22.70
2022-09-26T16:44:36.364Z,14.40
2022-09-26T16:47:29.659Z,18.50
2022-09-26T16:50:31.324Z,24.00
2022-09-26T16:53:07.014Z,25.70
2022-09-26T16:55:37.629Z,23.40
2022-09-26T16:58:06.268Z,26.20
2022-09-26T17:00:53.510Z,28.40
2022-09-26T17:03:32.580Z,27.20
2022-09-26T17:06:00.742Z,36.00
2022-09-26T17:08:29.718Z,35.20
2022-09-26T17:11:02.038Z,32.40
2022-09-26T17:13:35.307Z,34.70
2022-09-26T17:16:03.863Z,24.60
2022-09-26T17:18:33.961Z,20.80
2022-09-26T17:21:03.132Z,16.80
2022-09-26T17:23:40.415Z,16.40
2022-09-26T17:26:20.029Z,21.20
2022-09-26T17:28:49.490Z,18.40
2022-09-26T17:31:21.747Z,13.90
2022-09-26T17:33:53.537Z,18.70
2022-09-26T17:36:24.938Z,19.40
2022-09-26T17:38:54.880Z,17.30
2022-09-26T17:41:25.532Z,21.40
2022-09-26T17:43:59.154Z,18.10
2022-09-26T17:46:28.170Z,19.20
2022-09-26T17:48:56.539Z,21.90
2022-09-26T17:51:25.404Z,21.60
2022-09-26T17:53:57.601Z,20.60
2022-09-26T17:56:26.672Z,31.60
2022-09-26T17:58:57.141Z,18.70
2022-09-26T18:01:33.677Z,21.10
2022-09-26T18:04:12.647Z,20.90
2022-09-26T18:06:42.976Z,17.90
2022-09-26T18:09:15.833Z,18.00
2022-09-26T18:11:50.060Z,18.90
2022-09-26T18:14:18.557Z,19.50
2022-09-26T18:16:46.710Z,15.10
2022-09-26T18:19:14.664Z,15.10
2022-09-26T18:21:42.796Z,26.30
2022-09-26T18:24:19.392Z,17.10
2022-09-26T18:26:51.040Z,19.60
2022-09-26T18:29:44.711Z,15.50
2022-09-26T18:32:31.965Z,15.80
2022-09-26T18:35:01.115Z,19.10
2022-09-26T18:37:29.396Z,13.50
2022-09-26T18:40:02.934Z,14.20
2022-09-26T18:42:33.129Z,17.50
2022-09-26T18:45:07.992Z,17.90
2022-09-26T18:47:42.629Z,22.20
2022-09-26T18:50:34.486Z,15.50
2022-09-26T18:53:23.485Z,20.50
2022-09-26T18:56:10.570Z,13.30
2022-09-26T18:58:39.378Z,13.20
2022-09-26T19:01:23.561Z,22.30
2022-09-26T19:03:52.125Z,15.30
2022-09-26T19:06:28.915Z,18.90
2022-09-26T19:09:11.560Z,14.20
2022-09-26T19:11:39.885Z,12.90
2022-09-26T19:14:21.196Z,17.50
2022-09-26T19:16:50.858Z,22.10
2022-09-26T19:19:19.800Z,17.10
2022-09-26T19:21:51.652Z,19.40
2022-09-26T19:24:34.639Z,22.90
2022-09-26T19:27:11.780Z,18.80
2022-09-26T19:29:54.912Z,18.20
2022-09-26T19:32:28.821Z,13.60
2022-09-26T19:35:00.723Z,15.80
2022-09-26T19:37:29.573Z,16.90
2022-09-26T19:39:58.396Z,25.40
2022-09-26T19:42:27.059Z,14.60
2022-09-26T19:44:56.544Z,15.30
2022-09-26T19:47:24.759Z,14.20
2022-09-26T19:49:53.252Z,17.00
2022-09-26T19:52:23.021Z,16.30
2022-09-26T19:54:51.115Z,14.40
2022-09-26T19:57:22.086Z,14.70
2022-09-26T19:59:50.923Z,16.10
2022-09-26T20:02:31.403Z,16.90
2022-09-26T20:04:59.444Z,20.30
2022-09-26T20:07:27.960Z,14.90
2022-09-26T20:09:56.767Z,21.60
2022-09-26T20:12:24.697Z,24.40
2022-09-26T20:14:52.623Z,26.50
2022-09-26T20:17:25.245Z,25.70
2022-09-26T20:19:58.585Z,26.70
2022-09-26T20:22:27.150Z,25.80
2022-09-26T20:24:55.886Z,28.50
2022-09-26T20:27:28.198Z,26.50
2022-09-26T20:30:15.126Z,30.10
2022-09-26T20:32:43.456Z,37.00
2022-09-26T20:35:14.674Z,36.30
2022-09-26T20:37:44.293Z,40.40
2022-09-26T20:40:19.559Z,39.90
2022-09-26T20:45:30.550Z,38.30
2022-09-26T20:47:59.817Z,40.20
2022-09-26T20:50:34.232Z,31.40
2022-09-26T20:53:02.710Z,37.30
2022-09-26T20:55:32.540Z,33.40
2022-09-26T20:58:00.591Z,36.00
2022-09-26T21:00:29.050Z,34.60
2022-09-26T21:02:57.367Z,34.70
2022-09-26T21:05:27.619Z,31.10
2022-09-26T21:07:57.851Z,33.00
2022-09-26T21:10:32.387Z,30.30
2022-09-26T21:13:01.390Z,28.90
2022-09-26T21:15:32.458Z,28.60
2022-09-26T21:18:02.268Z,23.70
2022-09-26T21:20:34.093Z,30.00
2022-09-26T21:23:05.641Z,26.80
2022-09-26T21:25:34.345Z,26.00
2022-09-26T21:28:11.565Z,27.10
2022-09-26T21:30:39.832Z,29.20
2022-09-26T21:33:13.555Z,26.30
2022-09-26T21:35:42.881Z,29.20
2022-09-26T21:38:11.054Z,27.40
2022-09-26T21:40:45.553Z,28.30
2022-09-26T21:43:17.264Z,23.10
2022-09-26T21:45:46.603Z,26.30
2022-09-26T21:48:15.788Z,25.80
2022-09-26T21:50:51.914Z,27.80
2022-09-26T21:53:29.294Z,31.50
2022-09-26T21:58:40.397Z,28.00
2022-09-26T22:01:09.995Z,28.30
2022-09-26T22:03:38.027Z,28.60
2022-09-26T22:06:09.439Z,27.70
2022-09-26T22:08:39.540Z,29.00
2022-09-26T22:11:09.114Z,25.70
2022-09-26T22:13:37.721Z,22.80
2022-09-26T22:16:07.812Z,26.30
2022-09-26T22:18:39.108Z,24.80
2022-09-26T22:21:09.405Z,24.90
2022-09-26T22:23:37.876Z,17.90
2022-09-26T22:26:07.163Z,23.40
2022-09-26T22:28:35.790Z,21.80
2022-09-26T22:31:05.326Z,21.30
2022-09-26T22:33:34.334Z,22.10
2022-09-26T22:36:03.120Z,21.50
2022-09-26T22:38:33.142Z,23.90
2022-09-26T22:41:03.694Z,23.40
2022-09-26T22:43:32.799Z,20.90
2022-09-26T22:46:06.546Z,23.80
2022-09-26T22:48:36.572Z,27.40
2022-09-26T22:51:05.838Z,29.60
2022-09-26T22:53:36.782Z,25.80
2022-09-26T22:56:06.770Z,30.50
2022-09-26T22:58:38.490Z,34.70
2022-09-26T23:01:09.645Z,31.00
2022-09-26T23:03:38.494Z,30.90
2022-09-26T23:06:07.666Z,40.90
2022-09-26T23:08:36.800Z,40.30
2022-09-26T23:11:06.771Z,37.30
2022-09-26T23:13:35.704Z,44.00
2022-09-26T23:16:09.894Z,42.50
2022-09-26T23:18:39.970Z,43.00
2022-09-26T23:21:15.173Z,43.30
2022-09-26T23:23:58.589Z,41.20
2022-09-26T23:26:30.088Z,41.00
2022-09-26T23:28:59.297Z,37.50
2022-09-26T23:31:29.147Z,34.10
2022-09-26T23:33:57.738Z,42.80
2022-09-26T23:36:26.163Z,37.70
2022-09-26T23:38:56.842Z,39.30
2022-09-26T23:41:24.920Z,41.10
2022-09-26T23:43:52.822Z,40.70
2022-09-26T23:46:21.049Z,44.90
2022-09-26T23:48:49.512Z,39.80
2022-09-26T23:51:17.457Z,40.60
2022-09-26T23:53:46.213Z,42.90
2022-09-26T23:56:14.794Z,40.50
2022-09-26T23:58:43.776Z,46.30
